createdAt,value
2019-02-11T00:01:20.248Z,69.17
2019-02-11T00:03:59.580Z,66.60
2019-02-11T00:06:26.144Z,64.93
2019-02-11T00:08:58.754Z,65.27
2019-02-11T00:11:31.052Z,67.03
2019-02-11T00:14:02.692Z,63.07
2019-02-11T00:16:34.568Z,61.97
2019-02-11T00:19:06.862Z,66.03
2019-02-11T00:21:38.735Z,62.33
2019-02-11T00:24:10.641Z,61.70
2019-02-11T00:26:42.200Z,57.70
2019-02-11T00:29:14.655Z,68.93
2019-02-11T00:31:47.952Z,61.40
2019-02-11T00:34:19.645Z,61.80
2019-02-11T00:36:51.947Z,62.10
2019-02-11T00:39:23.378Z,57.77
2019-02-11T00:41:55.682Z,58.03
2019-02-11T00:44:27.795Z,59.13
2019-02-11T00:46:59.347Z,64.33
2019-02-11T00:49:31.000Z,57.60
2019-02-11T00:52:02.273Z,61.93
2019-02-11T00:54:33.571Z,60.07
2019-02-11T00:57:04.760Z,57.90
2019-02-11T00:59:36.436Z,56.70
2019-02-11T01:02:07.551Z,57.87
2019-02-11T01:04:39.221Z,58.53
2019-02-11T01:07:10.766Z,57.90
2019-02-11T01:09:42.208Z,60.87
2019-02-11T01:12:13.500Z,55.43
2019-02-11T01:14:44.464Z,61.83
2019-02-11T01:17:16.093Z,55.80
2019-02-11T01:19:47.528Z,53.53
2019-02-11T01:22:19.300Z,61.07
2019-02-11T01:24:51.171Z,57.57
2019-02-11T01:27:22.736Z,55.17
2019-02-11T01:30:13.405Z,52.57
2019-02-11T01:32:44.148Z,54.57
2019-02-11T01:35:16.115Z,59.57
2019-02-11T01:37:47.692Z,57.30
2019-02-11T01:40:18.413Z,57.17
2019-02-11T01:42:49.686Z,49.17
2019-02-11T01:45:20.848Z,51.90
2019-02-11T01:47:52.334Z,57.13
2019-02-11T01:50:23.648Z,53.67
2019-02-11T01:52:56.195Z,55.10
2019-02-11T01:55:27.723Z,56.03
2019-02-11T01:58:00.424Z,57.17
2019-02-11T02:00:31.954Z,57.13
2019-02-11T02:03:03.748Z,56.43
2019-02-11T02:05:35.038Z,53.17
2019-02-11T02:08:06.486Z,50.97
2019-02-11T02:10:38.465Z,55.73
2019-02-11T02:13:10.301Z,51.93
2019-02-11T02:15:42.273Z,49.30
2019-02-11T02:18:13.481Z,48.33
2019-02-11T02:20:44.586Z,52.93
2019-02-11T02:23:16.580Z,52.17
2019-02-11T02:25:47.763Z,49.00
2019-02-11T02:28:18.908Z,52.37
2019-02-11T02:30:49.840Z,52.63
2019-02-11T02:33:21.015Z,56.00
2019-02-11T02:35:51.922Z,51.97
2019-02-11T02:38:24.121Z,49.53
2019-02-11T02:40:55.214Z,52.17
2019-02-11T02:43:27.180Z,53.13
2019-02-11T02:45:58.104Z,53.60
2019-02-11T02:48:29.926Z,56.03
2019-02-11T02:51:00.690Z,53.80
2019-02-11T02:53:32.633Z,54.37
2019-02-11T02:56:05.682Z,48.73
2019-02-11T02:58:37.456Z,50.37
2019-02-11T03:01:09.177Z,49.97
2019-02-11T03:03:41.193Z,54.83
2019-02-11T03:06:12.655Z,50.23
2019-02-11T03:08:43.688Z,48.40
2019-02-11T03:11:15.233Z,53.60
2019-02-11T03:13:45.879Z,52.87
2019-02-11T03:16:17.363Z,58.17
2019-02-11T03:18:49.816Z,48.13
2019-02-11T03:21:20.701Z,54.10
2019-02-11T03:23:52.437Z,56.67
2019-02-11T03:26:23.921Z,48.90
2019-02-11T03:28:55.241Z,54.97
2019-02-11T03:31:26.680Z,55.27
2019-02-11T03:33:58.452Z,58.43
2019-02-11T03:36:29.427Z,60.83
2019-02-11T03:39:00.198Z,55.87
2019-02-11T03:41:31.487Z,56.37
2019-02-11T03:44:02.500Z,63.30
2019-02-11T03:46:33.405Z,55.80
2019-02-11T03:49:04.988Z,51.67
2019-02-11T03:51:36.069Z,51.37
2019-02-11T03:54:06.989Z,56.80
2019-02-11T03:56:37.963Z,52.67
2019-02-11T03:59:09.566Z,55.33
2019-02-11T04:01:41.134Z,58.63
2019-02-11T04:04:12.844Z,54.80
2019-02-11T04:06:45.905Z,58.97
2019-02-11T04:09:36.151Z,60.20
2019-02-11T04:12:07.958Z,63.30
2019-02-11T04:14:39.906Z,60.13
2019-02-11T04:17:11.147Z,63.37
2019-02-11T04:19:42.546Z,53.17
2019-02-11T04:22:14.056Z,53.57
2019-02-11T04:24:45.625Z,60.27
2019-02-11T04:27:17.242Z,66.83
2019-02-11T04:29:49.295Z,68.60
2019-02-11T04:32:20.639Z,63.47
2019-02-11T04:34:52.304Z,58.30
2019-02-11T04:37:25.002Z,58.97
2019-02-11T04:39:56.636Z,63.30
2019-02-11T04:42:28.048Z,62.93
2019-02-11T04:44:59.860Z,60.73
2019-02-11T04:47:32.023Z,59.70
2019-02-11T04:50:03.266Z,60.93
2019-02-11T04:52:35.996Z,63.87
2019-02-11T04:55:08.769Z,68.73
2019-02-11T04:57:42.011Z,64.73
2019-02-11T05:00:13.782Z,58.20
2019-02-11T05:02:46.045Z,57.10
2019-02-11T05:05:18.065Z,63.37
2019-02-11T05:07:49.906Z,59.47
2019-02-11T05:10:22.238Z,57.23
2019-02-11T05:12:54.362Z,55.23
2019-02-11T05:15:26.362Z,51.10
2019-02-11T05:17:58.132Z,52.47
2019-02-11T05:20:29.415Z,48.67
2019-02-11T05:23:00.028Z,51.10
2019-02-11T05:25:30.625Z,52.27
2019-02-11T05:28:01.332Z,49.87
2019-02-11T05:30:32.076Z,46.80
2019-02-11T05:33:02.806Z,50.30
2019-02-11T05:35:33.563Z,47.00
2019-02-11T05:38:04.127Z,47.73
2019-02-11T05:40:34.861Z,52.43
2019-02-11T05:43:05.375Z,50.37
2019-02-11T05:45:36.024Z,58.70
2019-02-11T05:48:08.133Z,61.87
2019-02-11T05:50:38.744Z,73.10
2019-02-11T05:53:09.298Z,89.03
2019-02-11T05:55:40.062Z,87.20
2019-02-11T05:58:10.696Z,88.50
2019-02-11T06:00:41.285Z,89.83
2019-02-11T06:03:11.913Z,96.30
2019-02-11T06:05:42.580Z,93.10
2019-02-11T06:08:13.093Z,93.43
2019-02-11T06:10:43.784Z,95.43
2019-02-11T06:13:14.414Z,96.37
2019-02-11T06:15:45.034Z,95.33
2019-02-11T06:18:15.781Z,87.93
2019-02-11T06:20:46.380Z,92.63
2019-02-11T06:23:16.901Z,91.57
2019-02-11T06:25:47.641Z,84.77
2019-02-11T06:28:18.340Z,89.40
2019-02-11T06:30:52.058Z,86.43
2019-02-11T06:33:22.953Z,86.30
2019-02-11T06:35:53.513Z,95.00
2019-02-11T06:38:24.162Z,96.23
2019-02-11T06:40:54.907Z,97.07
2019-02-11T06:43:25.460Z,112.20
2019-02-11T06:45:56.140Z,115.13
2019-02-11T06:48:26.777Z,112.13
2019-02-11T06:50:57.561Z,112.70
2019-02-11T06:53:28.123Z,119.33
2019-02-11T06:55:58.820Z,111.13
2019-02-11T06:58:30.113Z,121.57
2019-02-11T07:01:02.426Z,106.87
2019-02-11T07:03:33.414Z,109.57
2019-02-11T07:06:04.043Z,108.70
2019-02-11T07:08:36.142Z,110.13
2019-02-11T07:11:07.663Z,106.97
2019-02-11T07:13:38.383Z,100.97
2019-02-11T07:16:09.279Z,103.40
2019-02-11T07:18:40.094Z,101.80
2019-02-11T07:21:10.762Z,101.30
2019-02-11T07:23:41.361Z,112.50
2019-02-11T07:26:12.288Z,96.17
2019-02-11T07:28:43.092Z,92.47
2019-02-11T07:31:14.105Z,99.60
2019-02-11T07:33:46.532Z,95.80
2019-02-11T07:36:18.054Z,93.93
2019-02-11T07:38:48.887Z,87.30
2019-02-11T07:41:21.160Z,89.67
2019-02-11T07:44:20.110Z,88.57
2019-02-11T07:46:57.775Z,87.60
2019-02-11T07:49:28.487Z,77.20
2019-02-11T07:51:59.104Z,83.57
2019-02-11T07:54:30.446Z,72.43
2019-02-11T07:57:01.177Z,81.67
2019-02-11T07:59:32.579Z,82.43
2019-02-11T08:02:03.185Z,83.63
2019-02-11T08:04:33.721Z,79.90
2019-02-11T08:07:04.393Z,83.97
2019-02-11T08:09:36.243Z,77.20
2019-02-11T08:12:06.857Z,79.50
2019-02-11T08:14:37.545Z,80.33
2019-02-11T08:17:08.231Z,84.90
2019-02-11T08:19:38.795Z,87.03
2019-02-11T08:22:09.445Z,86.50
2019-02-11T08:24:40.092Z,89.23
2019-02-11T08:27:13.758Z,87.20
2019-02-11T08:29:46.163Z,83.00
2019-02-11T08:32:18.137Z,79.33
2019-02-11T08:34:49.114Z,77.17
2019-02-11T08:37:19.632Z,80.03
2019-02-11T08:39:51.813Z,82.37
2019-02-11T08:42:22.412Z,84.57
2019-02-11T08:44:53.231Z,83.37
2019-02-11T08:47:25.370Z,85.20
2019-02-11T08:49:56.188Z,86.23
2019-02-11T08:52:26.681Z,99.63
2019-02-11T08:54:57.456Z,95.33
2019-02-11T08:57:28.139Z,85.13
2019-02-11T08:59:58.816Z,110.07
2019-02-11T09:02:29.477Z,110.43
2019-02-11T09:05:00.112Z,116.33
2019-02-11T09:07:31.135Z,122.10
2019-02-11T09:10:01.803Z,118.27
2019-02-11T09:12:34.044Z,131.77
2019-02-11T09:15:05.620Z,128.50
2019-02-11T09:17:36.338Z,132.20
2019-02-11T09:20:08.324Z,131.90
2019-02-11T09:22:38.862Z,133.17
2019-02-11T09:25:10.187Z,148.10
2019-02-11T09:27:40.865Z,185.37
2019-02-11T09:30:13.814Z,164.37
2019-02-11T09:32:44.440Z,169.33
2019-02-11T09:35:15.158Z,158.17
2019-02-11T09:37:45.908Z,170.97
2019-02-11T09:40:16.989Z,155.33
2019-02-11T09:42:47.521Z,119.10
2019-02-11T09:45:20.280Z,117.60
2019-02-11T09:47:51.042Z,123.87
2019-02-11T09:50:30.564Z,125.87
2019-02-11T09:53:01.578Z,123.43
2019-02-11T09:55:33.684Z,135.70
2019-02-11T09:58:04.539Z,137.33
2019-02-11T10:00:35.242Z,137.07
2019-02-11T10:03:05.904Z,130.37
2019-02-11T10:05:36.597Z,113.77
2019-02-11T10:08:07.096Z,109.63
2019-02-11T10:10:37.788Z,108.23
2019-02-11T10:13:08.552Z,101.43
2019-02-11T10:15:39.120Z,97.63
2019-02-11T10:18:09.885Z,93.93
2019-02-11T10:20:40.655Z,92.63
2019-02-11T10:23:11.193Z,88.60
2019-02-11T10:25:41.736Z,87.60
2019-02-11T10:28:13.504Z,92.53
2019-02-11T10:30:44.248Z,89.63
2019-02-11T10:33:15.035Z,88.83
2019-02-11T10:35:46.011Z,90.10
2019-02-11T10:38:16.745Z,87.23
2019-02-11T10:40:47.434Z,89.50
2019-02-11T10:43:18.007Z,90.50
2019-02-11T10:45:48.579Z,87.23
2019-02-11T10:48:19.259Z,81.90
2019-02-11T10:50:50.068Z,81.33
2019-02-11T10:53:20.708Z,79.70
2019-02-11T10:55:51.532Z,77.63
2019-02-11T10:58:22.407Z,72.73
2019-02-11T11:00:53.110Z,69.33
2019-02-11T11:03:23.754Z,70.10
2019-02-11T11:05:54.364Z,66.70
2019-02-11T11:08:24.980Z,65.27
2019-02-11T11:10:55.644Z,64.33
2019-02-11T11:13:27.866Z,66.30
2019-02-11T11:15:58.545Z,65.17
2019-02-11T11:18:29.078Z,66.23
2019-02-11T11:20:59.713Z,61.13
2019-02-11T11:23:30.266Z,63.50
2019-02-11T11:26:00.787Z,60.27
2019-02-11T11:28:31.522Z,55.53
2019-02-11T11:31:02.123Z,53.43
2019-02-11T11:33:32.764Z,57.73
2019-02-11T11:36:03.381Z,62.17
2019-02-11T11:38:33.953Z,56.33
2019-02-11T11:41:05.117Z,61.93
2019-02-11T11:43:35.690Z,62.27
2019-02-11T11:46:06.455Z,54.27
2019-02-11T11:48:36.988Z,55.00
2019-02-11T11:51:07.734Z,57.00
2019-02-11T11:53:38.202Z,54.07
2019-02-11T11:56:08.770Z,47.77
2019-02-11T11:58:39.507Z,47.43
2019-02-11T12:01:10.247Z,47.57
2019-02-11T12:03:40.787Z,51.50
2019-02-11T12:06:11.399Z,53.40
2019-02-11T12:08:43.526Z,50.77
2019-02-11T12:11:14.200Z,53.90
2019-02-11T12:13:44.967Z,51.73
2019-02-11T12:16:15.708Z,51.70
2019-02-11T12:18:46.399Z,53.03
2019-02-11T12:21:17.066Z,49.27
2019-02-11T12:23:47.675Z,52.50
2019-02-11T12:26:21.296Z,51.43
2019-02-11T12:28:50.738Z,54.47
2019-02-11T12:31:21.260Z,50.87
2019-02-11T12:33:51.837Z,56.77
2019-02-11T12:36:22.411Z,50.47
2019-02-11T12:38:53.003Z,52.73
2019-02-11T12:41:23.615Z,53.83
2019-02-11T12:43:54.168Z,61.60
2019-02-11T12:46:24.795Z,59.73
2019-02-11T12:48:55.420Z,56.50
2019-02-11T12:51:26.203Z,59.00
2019-02-11T12:53:56.752Z,59.50
2019-02-11T12:56:27.554Z,62.77
2019-02-11T12:58:58.333Z,58.47
2019-02-11T13:01:29.023Z,58.83
2019-02-11T13:03:59.584Z,61.00
2019-02-11T13:06:30.356Z,62.83
2019-02-11T13:09:01.025Z,59.17
2019-02-11T13:11:33.907Z,55.53
2019-02-11T13:14:04.635Z,57.17
2019-02-11T13:16:35.271Z,57.53
2019-02-11T13:19:06.055Z,54.73
2019-02-11T13:21:36.563Z,57.67
2019-02-11T13:24:07.307Z,57.20
2019-02-11T13:26:38.012Z,59.60
2019-02-11T13:29:08.645Z,57.20
2019-02-11T13:31:39.256Z,56.93
2019-02-11T13:34:09.933Z,56.97
2019-02-11T13:36:40.467Z,54.67
2019-02-11T13:39:11.051Z,55.10
2019-02-11T13:41:41.771Z,58.23
2019-02-11T13:44:12.611Z,56.33
2019-02-11T13:46:43.341Z,58.57
2019-02-11T13:49:14.391Z,60.20
2019-02-11T13:51:45.013Z,62.17
2019-02-11T13:54:15.543Z,60.67
2019-02-11T13:56:46.299Z,61.13
2019-02-11T13:59:16.931Z,60.33
2019-02-11T14:01:47.639Z,60.17
2019-02-11T14:04:18.480Z,60.90
2019-02-11T14:06:49.483Z,74.50
2019-02-11T14:09:20.466Z,69.10
2019-02-11T14:11:51.399Z,71.07
2019-02-11T14:14:30.093Z,72.40
2019-02-11T14:17:00.938Z,70.27
2019-02-11T14:19:31.882Z,70.73
2019-02-11T14:22:02.409Z,72.77
2019-02-11T14:24:33.039Z,67.23
2019-02-11T14:27:04.147Z,73.47
2019-02-11T14:29:35.037Z,73.10
2019-02-11T14:32:08.523Z,70.67
2019-02-11T14:34:39.463Z,64.37
2019-02-11T14:37:10.795Z,69.90
2019-02-11T14:39:44.216Z,75.43
2019-02-11T14:42:15.486Z,110.93
2019-02-11T14:44:46.426Z,89.90
2019-02-11T14:47:17.266Z,77.77
2019-02-11T14:49:48.042Z,83.43
2019-02-11T14:52:18.783Z,82.90
2019-02-11T14:54:49.298Z,83.37
2019-02-11T14:57:19.932Z,84.43
2019-02-11T14:59:50.766Z,88.83
2019-02-11T15:02:21.322Z,95.90
2019-02-11T15:04:52.127Z,84.83
2019-02-11T15:07:22.822Z,84.80
2019-02-11T15:09:53.715Z,93.43
2019-02-11T15:12:24.351Z,109.27
2019-02-11T15:14:55.016Z,93.60
2019-02-11T15:17:27.185Z,86.03
2019-02-11T15:19:57.909Z,85.33
2019-02-11T15:22:28.463Z,88.67
2019-02-11T15:24:59.012Z,92.80
2019-02-11T15:27:29.559Z,84.73
2019-02-11T15:30:00.294Z,91.50
2019-02-11T15:32:30.847Z,89.97
2019-02-11T15:35:01.384Z,87.00
2019-02-11T15:37:31.954Z,87.23
2019-02-11T15:40:02.731Z,83.80
2019-02-11T15:42:33.298Z,86.33
2019-02-11T15:45:04.235Z,89.17
2019-02-11T15:47:34.889Z,87.87
2019-02-11T15:50:05.695Z,95.87
2019-02-11T15:52:36.470Z,97.87
2019-02-11T15:55:08.674Z,106.40
2019-02-11T15:57:39.999Z,111.00
2019-02-11T16:00:13.601Z,129.77
2019-02-11T16:02:44.280Z,134.40
2019-02-11T16:05:16.543Z,130.87
2019-02-11T16:07:47.765Z,136.70
2019-02-11T16:10:20.444Z,132.63
2019-02-11T16:12:51.445Z,131.67
2019-02-11T16:15:22.441Z,128.23
2019-02-11T16:17:53.277Z,125.90
2019-02-11T16:20:25.078Z,103.93
2019-02-11T16:22:56.063Z,107.60
2019-02-11T16:25:26.799Z,122.20
2019-02-11T16:27:58.073Z,117.63
2019-02-11T16:30:28.801Z,110.80
2019-02-11T16:32:59.432Z,100.47
2019-02-11T16:35:30.227Z,108.23
2019-02-11T16:38:00.833Z,116.43
2019-02-11T16:40:31.649Z,111.00
2019-02-11T16:43:02.267Z,102.33
2019-02-11T16:45:32.899Z,105.67
2019-02-11T16:48:03.839Z,103.40
2019-02-11T16:50:34.622Z,107.43
2019-02-11T16:53:05.379Z,106.67
2019-02-11T16:55:36.042Z,104.13
2019-02-11T16:58:06.803Z,99.83
2019-02-11T17:00:37.603Z,97.03
2019-02-11T17:03:08.221Z,104.13
2019-02-11T17:05:40.190Z,96.43
2019-02-11T17:08:10.838Z,97.97
2019-02-11T17:10:41.512Z,105.17
2019-02-11T17:13:12.284Z,96.43
2019-02-11T17:15:42.970Z,90.97
2019-02-11T17:18:13.680Z,94.57
2019-02-11T17:20:44.462Z,98.07
2019-02-11T17:23:14.998Z,87.97
2019-02-11T17:25:45.566Z,93.17
2019-02-11T17:28:16.447Z,92.43
2019-02-11T17:30:47.227Z,97.23
2019-02-11T17:33:17.906Z,88.43
2019-02-11T17:35:48.671Z,87.37
2019-02-11T17:38:19.459Z,83.93
2019-02-11T17:40:50.643Z,92.13
2019-02-11T17:43:21.301Z,116.63
2019-02-11T17:45:53.067Z,113.27
2019-02-11T17:48:33.074Z,132.93
2019-02-11T17:51:05.486Z,148.40
2019-02-11T17:53:38.088Z,114.07
2019-02-11T17:56:10.909Z,104.87
2019-02-11T17:58:42.612Z,140.43
2019-02-11T18:01:16.713Z,122.93
2019-02-11T18:03:58.440Z,125.63
2019-02-11T18:06:42.740Z,176.10
2019-02-11T18:09:46.457Z,160.30
2019-02-11T18:12:22.228Z,161.23
2019-02-11T18:14:54.451Z,157.60
2019-02-11T18:17:27.181Z,164.03
2019-02-11T18:20:15.161Z,172.77
2019-02-11T18:22:49.500Z,170.67
2019-02-11T18:25:50.212Z,142.03
2019-02-11T18:28:24.979Z,130.37
2019-02-11T18:31:17.395Z,138.97
2019-02-11T18:33:49.911Z,146.40
2019-02-11T18:36:22.300Z,147.23
2019-02-11T18:38:54.540Z,129.07
2019-02-11T18:41:26.480Z,130.10
2019-02-11T18:43:59.562Z,136.63
2019-02-11T18:46:31.412Z,127.67
2019-02-11T18:49:03.144Z,125.63
2019-02-11T18:51:35.157Z,119.07
2019-02-11T18:54:07.069Z,119.67
2019-02-11T18:56:38.556Z,112.50
2019-02-11T18:59:10.647Z,119.63
2019-02-11T19:01:41.165Z,122.93
2019-02-11T19:04:16.486Z,123.07
2019-02-11T19:06:48.318Z,138.03
2019-02-11T19:09:21.049Z,133.53
2019-02-11T19:11:53.414Z,138.37
2019-02-11T19:14:25.157Z,127.90
2019-02-11T19:16:55.765Z,141.33
2019-02-11T19:19:26.853Z,138.00
2019-02-11T19:21:57.506Z,131.17
2019-02-11T19:24:28.306Z,127.23
2019-02-11T19:26:58.935Z,122.80
2019-02-11T19:29:30.076Z,130.47
2019-02-11T19:32:00.987Z,119.67
2019-02-11T19:34:31.662Z,116.20
2019-02-11T19:37:02.420Z,128.73
2019-02-11T19:39:33.048Z,126.77
2019-02-11T19:42:03.722Z,134.57
2019-02-11T19:44:34.304Z,132.07
2019-02-11T19:47:05.753Z,122.00
2019-02-11T19:49:36.692Z,123.00
2019-02-11T19:52:07.490Z,124.00
2019-02-11T19:54:38.067Z,121.93
2019-02-11T19:57:08.656Z,127.33
2019-02-11T19:59:39.325Z,158.27
2019-02-11T20:02:09.999Z,141.27
2019-02-11T20:04:40.563Z,130.97
2019-02-11T20:07:11.214Z,124.90
2019-02-11T20:09:41.879Z,142.55
2019-02-11T20:12:12.517Z,126.03
2019-02-11T20:14:43.323Z,132.07
2019-02-11T20:17:13.965Z,123.60
2019-02-11T20:19:44.593Z,121.23
2019-02-11T20:22:15.225Z,125.53
2019-02-11T20:24:46.240Z,128.03
2019-02-11T20:27:16.803Z,135.80
2019-02-11T20:29:47.479Z,127.33
2019-02-11T20:32:18.208Z,140.87
2019-02-11T20:34:48.987Z,135.17
2019-02-11T20:37:20.021Z,140.03
2019-02-11T20:39:50.787Z,131.33
2019-02-11T20:42:21.984Z,145.00
2019-02-11T20:44:52.621Z,139.23
2019-02-11T20:47:23.493Z,115.93
2019-02-11T20:49:54.077Z,116.40
2019-02-11T20:52:24.690Z,119.00
2019-02-11T20:54:55.387Z,123.73
2019-02-11T20:57:25.966Z,116.80
2019-02-11T20:59:56.665Z,121.17
2019-02-11T21:02:27.288Z,116.47
2019-02-11T21:04:57.875Z,115.23
2019-02-11T21:07:28.730Z,121.90
2019-02-11T21:09:59.325Z,113.73
2019-02-11T21:12:30.113Z,114.87
2019-02-11T21:15:19.685Z,104.83
2019-02-11T21:17:51.105Z,113.87
2019-02-11T21:20:28.276Z,108.00
2019-02-11T21:22:59.061Z,114.00
2019-02-11T21:25:29.730Z,117.80
2019-02-11T21:28:00.349Z,128.53
2019-02-11T21:30:31.193Z,119.23
2019-02-11T21:33:01.830Z,136.17
2019-02-11T21:35:32.710Z,109.53
2019-02-11T21:38:03.566Z,113.07
2019-02-11T21:40:34.261Z,116.83
2019-02-11T21:43:05.032Z,114.03
2019-02-11T21:45:35.601Z,113.60
2019-02-11T21:48:06.245Z,114.20
2019-02-11T21:50:37.000Z,112.30
2019-02-11T21:53:07.586Z,106.73
2019-02-11T21:55:38.123Z,114.17
2019-02-11T21:58:08.748Z,121.17
2019-02-11T22:00:39.318Z,115.50
2019-02-11T22:03:09.836Z,113.47
2019-02-11T22:05:40.417Z,115.83
2019-02-11T22:08:11.065Z,113.17
2019-02-11T22:10:41.621Z,111.20
2019-02-11T22:13:12.225Z,117.80
2019-02-11T22:15:42.842Z,111.00
2019-02-11T22:18:13.418Z,105.73
2019-02-11T22:20:44.019Z,112.10
2019-02-11T22:23:15.685Z,117.23
2019-02-11T22:25:46.226Z,114.40
2019-02-11T22:28:16.779Z,106.97
2019-02-11T22:30:47.340Z,116.07
2019-02-11T22:33:17.939Z,115.67
2019-02-11T22:35:48.627Z,120.13
2019-02-11T22:38:19.294Z,119.10
2019-02-11T22:40:49.857Z,117.57
2019-02-11T22:43:20.466Z,113.50
2019-02-11T22:45:51.099Z,118.93
2019-02-11T22:48:21.678Z,130.77
2019-02-11T22:50:52.361Z,137.27
2019-02-11T22:53:22.921Z,131.37
2019-02-11T22:55:53.457Z,128.90
2019-02-11T22:58:24.250Z,127.23
2019-02-11T23:01:01.392Z,134.67
2019-02-11T23:03:32.060Z,117.63
2019-02-11T23:06:02.801Z,115.53
2019-02-11T23:08:33.414Z,121.93
2019-02-11T23:11:03.991Z,113.60
2019-02-11T23:13:34.552Z,137.83
2019-02-11T23:16:05.217Z,142.50
2019-02-11T23:18:35.845Z,141.37
2019-02-11T23:21:06.618Z,152.47
2019-02-11T23:23:37.116Z,151.37
2019-02-11T23:26:07.717Z,145.87
2019-02-11T23:28:38.314Z,154.73
2019-02-11T23:31:08.912Z,97.63
2019-02-11T23:33:39.710Z,126.27
2019-02-11T23:36:10.399Z,100.93
2019-02-11T23:38:41.063Z,81.00
2019-02-11T23:41:11.679Z,170.90
2019-02-11T23:43:42.181Z,139.27
2019-02-11T23:46:12.785Z,125.80
2019-02-11T23:48:43.408Z,91.97
2019-02-11T23:51:13.998Z,135.30
2019-02-11T23:53:44.578Z,144.20
2019-02-11T23:56:15.250Z,105.90
2019-02-11T23:58:45.836Z,104.13
